Time;durP1;ratioP1;P1;durP2;ratioP2;P2;SDS_P1;SDS_P2;PMS_P1;PMS_P2;Temp;Humidity;BMP_temperature;BMP_pressure;BME280_temperature;BME280_humidity;BME280_pressure;Samples;Min_cycle;Max_cycle;Signal;HPM_P1;HPM_P2
2022/05/28 00:02:11;;;;;;;6.38;1.77;;;;;;;;;;5053079;28;20040;-32
2022/05/28 00:04:38;;;;;;;9.70;1.80;;;;;;;;;;5044250;28;20043;-32
2022/05/28 00:07:05;;;;;;;11.68;2.42;;;;;;;;;;5049208;28;20048;-31
2022/05/28 00:09:31;;;;;;;6.97;1.67;;;;;;;;;;5034974;28;20426;-29
2022/05/28 00:11:57;;;;;;;6.30;1.70;;;;;;;;;;5052670;28;20041;-30
2022/05/28 00:14:23;;;;;;;7.88;1.73;;;;;;;;;;5044913;28;20048;-31
2022/05/28 00:16:49;;;;;;;9.20;1.92;;;;;;;;;;5042865;28;20072;-31
2022/05/28 00:19:16;;;;;;;8.48;2.30;;;;;;;;;;5044783;28;20044;-29
2022/05/28 00:21:43;;;;;;;6.03;1.40;;;;;;;;;;5039919;28;20071;-28
2022/05/28 00:24:10;;;;;;;6.13;1.42;;;;;;;;;;5053977;28;20506;-28
2022/05/28 00:26:36;;;;;;;6.20;1.70;;;;;;;;;;5053967;28;20041;-29
2022/05/28 00:29:02;;;;;;;10.00;1.83;;;;;;;;;;5053393;28;20045;-28
2022/05/28 00:31:28;;;;;;;13.48;1.73;;;;;;;;;;5053432;28;20048;-29
2022/05/28 00:33:54;;;;;;;8.85;1.88;;;;;;;;;;5053508;28;20033;-28
2022/05/28 00:36:20;;;;;;;4.43;1.48;;;;;;;;;;5052985;28;20120;-28
2022/05/28 00:38:47;;;;;;;5.82;2.05;;;;;;;;;;5053492;28;20426;-28
2022/05/28 00:41:13;;;;;;;6.50;1.58;;;;;;;;;;5044095;28;20049;-28
2022/05/28 00:43:40;;;;;;;3.95;1.65;;;;;;;;;;5033885;28;20037;-27
2022/05/28 00:46:14;;;;;;;5.30;2.10;;;;;;;;;;5044171;28;20038;-28
2022/05/28 00:48:40;;;;;;;;;;;;;;;;;;5053756;28;20048;-27
2022/05/28 00:51:08;;;;;;;4.10;1.25;;;;;;;;;;5044997;28;19916;-28
2022/05/28 00:53:34;;;;;;;7.15;1.88;;;;;;;;;;5033176;28;20038;-27
2022/05/28 00:56:02;;;;;;;7.97;1.98;;;;;;;;;;5033304;28;20043;-28
2022/05/28 00:58:28;;;;;;;7.72;1.70;;;;;;;;;;5048874;28;20430;-32
2022/05/28 01:00:54;;;;;;;6.93;1.60;;;;;;;;;;5042633;28;20517;-31
2022/05/28 01:03:31;;;;;;;5.50;1.50;;;;;;;;;;5047886;28;20051;-32
2022/05/28 01:06:22;;;;;;;6.95;1.42;;;;;;;;;;5048607;28;20075;-31
2022/05/28 01:08:56;;;;;;;6.68;1.65;;;;;;;;;;5042977;28;20120;-32
2022/05/28 01:11:22;;;;;;;4.82;1.40;;;;;;;;;;5049385;28;20545;-31
2022/05/28 01:13:54;;;;;;;6.97;1.70;;;;;;;;;;5041130;28;20045;-31
2022/05/28 01:16:27;;;;;;;7.43;1.60;;;;;;;;;;5042017;28;20037;-30
2022/05/28 01:18:59;;;;;;;4.57;1.40;;;;;;;;;;5044908;28;20044;-31
2022/05/28 01:21:31;;;;;;;6.30;1.40;;;;;;;;;;5047027;28;20499;-33
2022/05/28 01:24:00;;;;;;;6.60;1.40;;;;;;;;;;5052092;28;20037;-30
2022/05/28 01:26:32;;;;;;;5.32;1.73;;;;;;;;;;5043807;28;20045;-31
2022/05/28 01:29:01;;;;;;;4.25;1.27;;;;;;;;;;5046900;28;20040;-32
2022/05/28 01:31:29;;;;;;;7.40;1.70;;;;;;;;;;5043225;28;20040;-34
2022/05/28 01:33:55;;;;;;;7.30;1.83;;;;;;;;;;5045347;28;20037;-30
2022/05/28 01:36:22;;;;;;;6.00;1.27;;;;;;;;;;5044295;28;20493;-33
2022/05/28 01:38:49;;;;;;;5.95;1.50;;;;;;;;;;5042722;28;20144;-30
2022/05/28 01:41:16;;;;;;;5.03;1.45;;;;;;;;;;5039495;28;20614;-32
2022/05/28 01:43:45;;;;;;;5.82;1.70;;;;;;;;;;5045910;28;20072;-32
2022/05/28 01:46:13;;;;;;;6.80;1.98;;;;;;;;;;5043273;28;20119;-31
2022/05/28 01:48:40;;;;;;;7.20;1.55;;;;;;;;;;5047663;28;20033;-30
2022/05/28 01:51:07;;;;;;;5.63;1.83;;;;;;;;;;5042977;28;20033;-31
2022/05/28 01:56:21;;;;;;;7.10;1.70;;;;;;;;;;5045956;28;20072;-31
2022/05/28 01:58:47;;;;;;;5.25;2.00;;;;;;;;;;5039926;28;20451;-30
2022/05/28 02:01:13;;;;;;;4.22;1.70;;;;;;;;;;5042464;28;20029;-30
2022/05/28 02:03:40;;;;;;;5.80;1.92;;;;;;;;;;5049051;28;20032;-30
2022/05/28 02:06:07;;;;;;;6.97;1.45;;;;;;;;;;5049962;28;20068;-32
2022/05/28 02:08:35;;;;;;;7.57;1.70;;;;;;;;;;5045131;28;20405;-30
2022/05/28 02:11:12;;;;;;;7.80;1.63;;;;;;;;;;5050582;28;20048;-30
2022/05/28 02:13:46;;;;;;;6.13;1.55;;;;;;;;;;5039627;28;20033;-30
2022/05/28 02:16:17;;;;;;;6.97;1.67;;;;;;;;;;5044185;28;20395;-31
2022/05/28 02:18:46;;;;;;;11.70;2.00;;;;;;;;;;5038641;28;20045;-32
2022/05/28 02:21:17;;;;;;;5.45;1.80;;;;;;;;;;5047030;28;20044;-30
2022/05/28 02:23:43;;;;;;;6.78;1.73;;;;;;;;;;5038040;28;20044;-32
2022/05/28 02:26:14;;;;;;;5.07;1.50;;;;;;;;;;5041496;28;20108;-31
2022/05/28 02:28:41;;;;;;;9.20;2.08;;;;;;;;;;5037501;28;20037;-31
2022/05/28 02:31:12;;;;;;;6.70;1.40;;;;;;;;;;5036543;28;20041;-29
2022/05/28 02:33:38;;;;;;;9.38;2.15;;;;;;;;;;5046193;28;20033;-31
2022/05/28 02:36:04;;;;;;;5.28;1.70;;;;;;;;;;5050724;28;20494;-30
2022/05/28 02:38:30;;;;;;;4.88;1.40;;;;;;;;;;5039714;28;20036;-29
2022/05/28 02:40:56;;;;;;;7.72;1.63;;;;;;;;;;5041893;28;20041;-29
2022/05/28 02:43:23;;;;;;;5.97;1.75;;;;;;;;;;5042302;28;20040;-29
2022/05/28 02:45:49;;;;;;;5.53;2.05;;;;;;;;;;5044743;28;20033;-29
2022/05/28 02:48:15;;;;;;;6.95;1.80;;;;;;;;;;5041328;28;20045;-30
2022/05/28 02:50:41;;;;;;;9.55;2.03;;;;;;;;;;5041225;28;20037;-30
2022/05/28 02:53:08;;;;;;;6.03;1.50;;;;;;;;;;5038214;28;20088;-30
2022/05/28 02:55:34;;;;;;;6.90;1.85;;;;;;;;;;5019506;28;20037;-30
2022/05/28 02:58:00;;;;;;;10.80;2.25;;;;;;;;;;5036336;28;20041;-29
2022/05/28 03:00:26;;;;;;;10.20;2.50;;;;;;;;;;5052792;28;20132;-29
2022/05/28 03:02:52;;;;;;;3.97;1.48;;;;;;;;;;5053625;28;20047;-30
2022/05/28 03:05:20;;;;;;;7.70;1.75;;;;;;;;;;5056688;28;20041;-32
2022/05/28 03:07:46;;;;;;;5.88;1.70;;;;;;;;;;5045896;28;20048;-30
2022/05/28 03:10:12;;;;;;;7.80;1.70;;;;;;;;;;5037127;28;20052;-29
2022/05/28 03:12:38;;;;;;;6.65;2.00;;;;;;;;;;5037622;28;20041;-30
2022/05/28 03:15:05;;;;;;;7.05;1.50;;;;;;;;;;5041138;28;20528;-29
2022/05/28 03:17:31;;;;;;;8.55;2.10;;;;;;;;;;5052300;28;20422;-30
2022/05/28 03:20:00;;;;;;;4.53;2.28;;;;;;;;;;5050441;28;20123;-29
2022/05/28 03:22:26;;;;;;;10.18;1.98;;;;;;;;;;5044409;28;20053;-29
2022/05/28 03:24:52;;;;;;;5.38;1.73;;;;;;;;;;5039700;28;20041;-29
2022/05/28 03:27:19;;;;;;;10.90;2.13;;;;;;;;;;5054208;28;20098;-30
2022/05/28 03:29:45;;;;;;;10.43;2.08;;;;;;;;;;5052907;28;20044;-30
2022/05/28 03:32:11;;;;;;;5.47;1.77;;;;;;;;;;5042598;28;20125;-29
2022/05/28 03:34:37;;;;;;;7.30;1.55;;;;;;;;;;5056123;28;20446;-29
2022/05/28 03:37:03;;;;;;;9.32;1.70;;;;;;;;;;5044258;28;20040;-30
2022/05/28 03:39:29;;;;;;;4.78;2.15;;;;;;;;;;5053493;28;20047;-30
2022/05/28 03:41:55;;;;;;;10.55;1.92;;;;;;;;;;5049341;28;20108;-31
2022/05/28 03:44:21;;;;;;;5.55;1.50;;;;;;;;;;5042589;28;20566;-29
2022/05/28 03:46:48;;;;;;;7.80;1.73;;;;;;;;;;5056275;28;20083;-30
2022/05/28 03:49:20;;;;;;;7.43;2.00;;;;;;;;;;5048730;28;20041;-30
2022/05/28 03:51:46;;;;;;;8.57;1.92;;;;;;;;;;5032919;28;20083;-28
2022/05/28 03:54:12;;;;;;;9.77;2.67;;;;;;;;;;5057322;28;20037;-28
2022/05/28 03:56:40;;;;;;;6.10;1.83;;;;;;;;;;5057441;28;20037;-28
2022/05/28 03:59:06;;;;;;;8.90;2.08;;;;;;;;;;5040464;28;20045;-28
2022/05/28 04:01:33;;;;;;;7.80;1.90;;;;;;;;;;5049220;28;20048;-28
2022/05/28 04:03:59;;;;;;;10.98;2.42;;;;;;;;;;5057107;28;20045;-28
2022/05/28 04:06:25;;;;;;;6.82;1.80;;;;;;;;;;5057364;28;20116;-27
2022/05/28 04:08:51;;;;;;;5.93;1.67;;;;;;;;;;5057093;28;20081;-28
2022/05/28 04:11:17;;;;;;;7.45;1.75;;;;;;;;;;5055644;28;20049;-28
2022/05/28 04:13:43;;;;;;;9.75;2.40;;;;;;;;;;5048606;28;20044;-29
2022/05/28 04:16:10;;;;;;;7.88;2.35;;;;;;;;;;5043028;28;20087;-27
2022/05/28 04:18:36;;;;;;;7.05;2.05;;;;;;;;;;5053825;28;20037;-28
2022/05/28 04:21:02;;;;;;;7.10;1.92;;;;;;;;;;5053972;28;20037;-28
2022/05/28 04:23:28;;;;;;;4.35;1.90;;;;;;;;;;5054051;28;20488;-29
2022/05/28 04:25:54;;;;;;;9.45;2.85;;;;;;;;;;5053648;28;20043;-28
2022/05/28 04:28:20;;;;;;;9.30;2.10;;;;;;;;;;5053628;28;20043;-27
2022/05/28 04:30:46;;;;;;;7.55;1.85;;;;;;;;;;5053752;28;20052;-27
2022/05/28 04:33:12;;;;;;;7.68;2.35;;;;;;;;;;5053490;28;20132;-27
2022/05/28 04:35:38;;;;;;;6.72;2.38;;;;;;;;;;5053654;28;20491;-28
2022/05/28 04:38:05;;;;;;;8.13;2.35;;;;;;;;;;5053881;28;20040;-31
2022/05/28 04:40:31;;;;;;;7.03;1.98;;;;;;;;;;5053832;28;20049;-30
2022/05/28 04:42:57;;;;;;;10.88;3.63;;;;;;;;;;5053653;28;20080;-30
2022/05/28 04:45:23;;;;;;;11.60;2.45;;;;;;;;;;5053646;28;20196;-29
2022/05/28 04:47:49;;;;;;;10.20;2.30;;;;;;;;;;5053478;28;20686;-29
2022/05/28 04:50:15;;;;;;;6.88;2.90;;;;;;;;;;5053207;28;20037;-29
2022/05/28 04:52:41;;;;;;;12.40;2.40;;;;;;;;;;5053017;28;20048;-28
2022/05/28 04:55:08;;;;;;;11.07;2.35;;;;;;;;;;5053378;28;20431;-28
2022/05/28 04:57:35;;;;;;;10.30;2.35;;;;;;;;;;5053151;28;20553;-28
2022/05/28 05:00:01;;;;;;;8.80;2.45;;;;;;;;;;5052818;28;20041;-30
2022/05/28 05:02:28;;;;;;;8.20;1.90;;;;;;;;;;5053049;28;20138;-28
2022/05/28 05:04:54;;;;;;;8.38;2.28;;;;;;;;;;5053402;28;20612;-29
2022/05/28 05:07:20;;;;;;;7.85;2.08;;;;;;;;;;5053263;28;20072;-28
2022/05/28 05:09:46;;;;;;;10.35;2.58;;;;;;;;;;5053136;28;20045;-28
2022/05/28 05:12:12;;;;;;;7.57;2.42;;;;;;;;;;5052572;28;20112;-28
2022/05/28 05:14:38;;;;;;;9.10;2.00;;;;;;;;;;5052932;28;20041;-28
2022/05/28 05:17:05;;;;;;;11.55;2.45;;;;;;;;;;5052981;28;20049;-28
2022/05/28 05:19:31;;;;;;;11.40;2.58;;;;;;;;;;5053243;28;20033;-31
2022/05/28 05:21:57;;;;;;;13.18;2.58;;;;;;;;;;5052872;28;20469;-29
2022/05/28 05:24:24;;;;;;;12.00;3.45;;;;;;;;;;5052421;28;20045;-29
2022/05/28 05:26:50;;;;;;;13.30;2.20;;;;;;;;;;5052739;28;20486;-29
2022/05/28 05:29:16;;;;;;;9.07;2.20;;;;;;;;;;5043134;28;20046;-29
2022/05/28 05:31:42;;;;;;;13.10;3.38;;;;;;;;;;5032366;28;20041;-29
2022/05/28 05:34:09;;;;;;;11.10;2.17;;;;;;;;;;5014887;28;20037;-30
2022/05/28 05:36:35;;;;;;;9.38;2.30;;;;;;;;;;5032477;28;20041;-28
2022/05/28 05:39:01;;;;;;;9.00;2.40;;;;;;;;;;5040409;28;20060;-29
2022/05/28 05:41:27;;;;;;;5.80;2.17;;;;;;;;;;5052148;28;20075;-28
2022/05/28 05:43:53;;;;;;;8.95;2.72;;;;;;;;;;5052350;28;20083;-29
2022/05/28 05:46:19;;;;;;;9.70;2.95;;;;;;;;;;5052692;28;20044;-29
2022/05/28 05:48:46;;;;;;;9.70;2.25;;;;;;;;;;5050367;28;20433;-30
2022/05/28 05:51:14;;;;;;;9.77;2.30;;;;;;;;;;5052390;28;20495;-31
2022/05/28 05:53:40;;;;;;;14.57;2.58;;;;;;;;;;5050105;28;20112;-27
2022/05/28 05:56:07;;;;;;;9.25;3.00;;;;;;;;;;5052203;28;20032;-31
2022/05/28 05:58:34;;;;;;;11.88;2.83;;;;;;;;;;5034325;28;20453;-28
2022/05/28 06:01:02;;;;;;;9.63;2.38;;;;;;;;;;5034289;28;20507;-28
2022/05/28 06:03:28;;;;;;;11.88;2.15;;;;;;;;;;5052006;28;20102;-29
2022/05/28 06:05:58;;;;;;;8.50;2.50;;;;;;;;;;5052355;28;20486;-29
2022/05/28 06:08:24;;;;;;;9.93;2.65;;;;;;;;;;5052050;28;20132;-29
2022/05/28 06:10:50;;;;;;;12.52;2.83;;;;;;;;;;5052037;28;20053;-29
2022/05/28 06:13:16;;;;;;;9.05;2.85;;;;;;;;;;5051881;28;20072;-30
2022/05/28 06:15:43;;;;;;;10.40;3.05;;;;;;;;;;5051748;28;20438;-29
2022/05/28 06:18:09;;;;;;;9.50;2.80;;;;;;;;;;5051458;28;20040;-29
2022/05/28 06:20:35;;;;;;;11.80;3.42;;;;;;;;;;5051820;28;20122;-29
2022/05/28 06:23:02;;;;;;;14.15;3.42;;;;;;;;;;5051684;28;20048;-28
2022/05/28 06:25:28;;;;;;;14.13;2.78;;;;;;;;;;5050557;28;20044;-29
2022/05/28 06:27:54;;;;;;;10.80;2.88;;;;;;;;;;5051673;28;20037;-29
2022/05/28 06:30:20;;;;;;;10.52;2.50;;;;;;;;;;5051730;28;20049;-29
2022/05/28 06:32:46;;;;;;;9.88;2.70;;;;;;;;;;5051569;28;20067;-28
2022/05/28 06:35:12;;;;;;;7.80;2.17;;;;;;;;;;5050870;28;20144;-28
2022/05/28 06:37:38;;;;;;;10.38;2.30;;;;;;;;;;5051819;28;20052;-29
2022/05/28 06:40:05;;;;;;;7.25;2.15;;;;;;;;;;5051472;28;20075;-30
2022/05/28 06:42:31;;;;;;;9.32;2.67;;;;;;;;;;5051255;28;20040;-29
2022/05/28 06:44:57;;;;;;;8.88;2.17;;;;;;;;;;5051552;28;20384;-28
2022/05/28 06:47:23;;;;;;;8.38;2.22;;;;;;;;;;5051176;28;20347;-29
2022/05/28 06:51:01;;;;;;;4.38;1.80;;;;;;;;;;5051357;28;20048;-29
2022/05/28 06:52:36;;;;;;;8.93;2.10;;;;;;;;;;5050996;28;20499;-28
2022/05/28 06:55:02;;;;;;;7.15;1.70;;;;;;;;;;5051324;28;20048;-29
2022/05/28 06:57:28;;;;;;;10.38;2.20;;;;;;;;;;5051421;28;20072;-30
2022/05/28 06:59:54;;;;;;;5.57;1.85;;;;;;;;;;5050844;28;20040;-29
2022/05/28 07:02:20;;;;;;;9.80;2.55;;;;;;;;;;5051586;28;20036;-30
2022/05/28 07:04:46;;;;;;;7.13;1.50;;;;;;;;;;5051415;28;20124;-29
2022/05/28 07:07:13;;;;;;;8.38;2.22;;;;;;;;;;5051295;28;20048;-29
2022/05/28 07:09:39;;;;;;;7.47;2.42;;;;;;;;;;5051060;28;20040;-30
2022/05/28 07:12:05;;;;;;;11.18;2.63;;;;;;;;;;5034459;28;20041;-29
2022/05/28 07:14:31;;;;;;;9.00;2.63;;;;;;;;;;5031289;28;20372;-29
2022/05/28 07:16:57;;;;;;;9.68;2.60;;;;;;;;;;5030809;28;20041;-28
2022/05/28 07:19:23;;;;;;;10.07;2.67;;;;;;;;;;5030844;28;20037;-29
2022/05/28 07:21:49;;;;;;;9.35;2.33;;;;;;;;;;5030960;28;20047;-30
2022/05/28 07:24:15;;;;;;;7.18;2.60;;;;;;;;;;5031165;28;20398;-30
2022/05/28 07:26:41;;;;;;;10.48;3.05;;;;;;;;;;5030869;28;20041;-28
2022/05/28 07:29:08;;;;;;;9.90;2.63;;;;;;;;;;5030810;28;20038;-29
2022/05/28 07:31:35;;;;;;;9.77;2.70;;;;;;;;;;5031250;28;20130;-28
2022/05/28 07:34:01;;;;;;;8.60;2.63;;;;;;;;;;5031124;28;20041;-29
2022/05/28 07:36:27;;;;;;;8.55;2.30;;;;;;;;;;5030465;28;20037;-29
2022/05/28 07:38:55;;;;;;;10.63;2.58;;;;;;;;;;5030689;28;20128;-29
2022/05/28 07:41:22;;;;;;;8.98;3.10;;;;;;;;;;5031046;28;20052;-31
2022/05/28 07:43:49;;;;;;;11.85;2.70;;;;;;;;;;5031004;28;20480;-29
2022/05/28 07:46:16;;;;;;;7.60;2.30;;;;;;;;;;5033970;28;20039;-32
2022/05/28 07:48:42;;;;;;;10.05;2.60;;;;;;;;;;5049372;28;20111;-33
2022/05/28 07:51:09;;;;;;;6.80;2.78;;;;;;;;;;5048954;28;20037;-31
2022/05/28 07:53:35;;;;;;;7.78;2.42;;;;;;;;;;5047743;28;20491;-31
2022/05/28 07:56:01;;;;;;;8.15;2.33;;;;;;;;;;5039125;28;20064;-33
2022/05/28 07:58:27;;;;;;;8.65;2.40;;;;;;;;;;5044476;28;20037;-33
2022/05/28 08:00:53;;;;;;;7.40;2.30;;;;;;;;;;5041999;28;20037;-31
2022/05/28 08:03:20;;;;;;;5.35;1.83;;;;;;;;;;5035210;28;20116;-31
2022/05/28 08:05:47;;;;;;;5.03;1.90;;;;;;;;;;5043654;28;20499;-31
2022/05/28 08:08:13;;;;;;;8.00;2.00;;;;;;;;;;5046924;28;20045;-33
2022/05/28 08:10:40;;;;;;;5.57;1.83;;;;;;;;;;5041206;28;20044;-32
2022/05/28 08:13:13;;;;;;;6.97;2.28;;;;;;;;;;5038130;28;20403;-34
2022/05/28 08:15:40;;;;;;;5.63;2.10;;;;;;;;;;5038447;28;20030;-32
2022/05/28 08:18:07;;;;;;;6.53;2.00;;;;;;;;;;5024872;28;20041;-33
2022/05/28 08:23:19;;;;;;;5.13;2.05;;;;;;;;;;5048942;28;20052;-32
2022/05/28 08:25:45;;;;;;;7.10;2.88;;;;;;;;;;5044028;28;20048;-33
2022/05/28 08:28:12;;;;;;;6.95;2.40;;;;;;;;;;5049692;28;20051;-32
2022/05/28 08:30:38;;;;;;;8.68;2.38;;;;;;;;;;5048121;28;20037;-32
2022/05/28 08:33:04;;;;;;;9.07;2.75;;;;;;;;;;5041726;28;20033;-30
2022/05/28 08:35:31;;;;;;;8.18;2.78;;;;;;;;;;5046006;28;20507;-30
2022/05/28 08:37:57;;;;;;;10.80;3.25;;;;;;;;;;5039831;28;20091;-30
2022/05/28 08:40:26;;;;;;;12.70;2.78;;;;;;;;;;5040322;28;20037;-31
2022/05/28 08:42:53;;;;;;;8.55;2.53;;;;;;;;;;5040584;28;20383;-31
2022/05/28 08:45:19;;;;;;;9.60;3.13;;;;;;;;;;5042408;28;20557;-32
2022/05/28 08:47:47;;;;;;;10.73;3.10;;;;;;;;;;5047150;28;20108;-31
2022/05/28 08:50:14;;;;;;;13.15;3.45;;;;;;;;;;5042955;28;20411;-31
2022/05/28 08:52:58;;;;;;;12.43;3.35;;;;;;;;;;5033026;28;20112;-30
2022/05/28 08:55:26;;;;;;;8.18;2.90;;;;;;;;;;5046518;28;20113;-30
2022/05/28 08:57:57;;;;;;;14.93;3.00;;;;;;;;;;5031045;28;20450;-32
2022/05/28 09:00:43;;;;;;;12.07;2.80;;;;;;;;;;5048197;28;20033;-31
2022/05/28 09:03:17;;;;;;;11.23;2.63;;;;;;;;;;5051012;28;20081;-30
2022/05/28 09:06:02;;;;;;;6.57;1.80;;;;;;;;;;5041713;28;20051;-31
2022/05/28 09:08:29;;;;;;;9.98;2.55;;;;;;;;;;5025572;28;20048;-31
2022/05/28 09:10:57;;;;;;;7.95;2.50;;;;;;;;;;5050146;28;20067;-30
2022/05/28 09:13:29;;;;;;;6.00;2.25;;;;;;;;;;5040385;28;20073;-32
2022/05/28 09:15:56;;;;;;;11.85;3.10;;;;;;;;;;5038974;28;20111;-31
2022/05/28 09:18:23;;;;;;;11.90;3.13;;;;;;;;;;5043612;28;20406;-31
2022/05/28 09:20:50;;;;;;;14.00;2.72;;;;;;;;;;5045242;28;20041;-31
2022/05/28 09:23:16;;;;;;;10.15;2.88;;;;;;;;;;5046334;28;20076;-30
2022/05/28 09:25:45;;;;;;;9.13;2.28;;;;;;;;;;5035350;28;20380;-31
2022/05/28 09:28:35;;;;;;;12.88;3.30;;;;;;;;;;5045177;28;20084;-31
2022/05/28 09:31:19;;;;;;;12.32;2.72;;;;;;;;;;5044217;28;20399;-31
2022/05/28 09:34:04;;;;;;;8.63;2.92;;;;;;;;;;5041198;28;20037;-31
2022/05/28 09:36:30;;;;;;;7.05;2.83;;;;;;;;;;5031220;28;20040;-31
2022/05/28 09:39:03;;;;;;;11.80;3.05;;;;;;;;;;5031552;28;20395;-31
2022/05/28 09:41:29;;;;;;;8.82;2.90;;;;;;;;;;5038673;28;20117;-30
2022/05/28 09:44:02;;;;;;;11.90;2.97;;;;;;;;;;5035280;28;20077;-32
2022/05/28 09:46:31;;;;;;;8.77;2.70;;;;;;;;;;5034169;28;20407;-31
2022/05/28 09:49:16;;;;;;;9.80;3.03;;;;;;;;;;5034937;28;20071;-31
2022/05/28 09:51:57;;;;;;;10.00;3.00;;;;;;;;;;5034260;28;20136;-31
2022/05/28 09:54:25;;;;;;;8.45;2.45;;;;;;;;;;5035297;28;20077;-31
2022/05/28 09:56:51;;;;;;;6.72;2.35;;;;;;;;;;5038203;28;20047;-31
2022/05/28 09:59:26;;;;;;;11.02;2.70;;;;;;;;;;5042111;28;20033;-30
2022/05/28 10:01:54;;;;;;;9.38;2.42;;;;;;;;;;5049544;28;20045;-31
2022/05/28 10:04:30;;;;;;;7.93;2.40;;;;;;;;;;5048720;28;20051;-31
2022/05/28 10:06:57;;;;;;;8.88;2.50;;;;;;;;;;5044239;28;20041;-30
2022/05/28 10:09:25;;;;;;;7.70;2.65;;;;;;;;;;5045452;28;20040;-31
2022/05/28 10:11:53;;;;;;;6.97;2.00;;;;;;;;;;5049658;28;20078;-31
2022/05/28 10:14:19;;;;;;;7.80;2.30;;;;;;;;;;5049648;28;20033;-31
2022/05/28 10:16:47;;;;;;;6.18;2.30;;;;;;;;;;5050235;28;20037;-33
2022/05/28 10:19:18;;;;;;;4.85;1.90;;;;;;;;;;5042045;28;20055;-31
2022/05/28 10:21:50;;;;;;;10.73;2.60;;;;;;;;;;5050162;28;20183;-31
2022/05/28 10:24:18;;;;;;;8.75;2.40;;;;;;;;;;5040684;28;20427;-30
2022/05/28 10:26:49;;;;;;;8.68;2.47;;;;;;;;;;5046996;28;20051;-32
2022/05/28 10:29:20;;;;;;;12.10;2.45;;;;;;;;;;5044387;28;20041;-32
2022/05/28 10:31:48;;;;;;;9.90;2.50;;;;;;;;;;5032016;28;20128;-32
2022/05/28 10:34:40;;;;;;;7.60;2.30;;;;;;;;;;5046763;28;20037;-31
2022/05/28 10:37:14;;;;;;;11.60;2.75;;;;;;;;;;5032018;28;20051;-32
2022/05/28 10:39:41;;;;;;;12.88;2.97;;;;;;;;;;5038244;28;20483;-30
2022/05/28 10:42:14;;;;;;;11.75;3.03;;;;;;;;;;5036637;28;20578;-30
2022/05/28 10:44:41;;;;;;;10.13;2.58;;;;;;;;;;5049138;28;20033;-31
2022/05/28 10:47:10;;;;;;;11.88;2.75;;;;;;;;;;5039226;28;20061;-33
2022/05/28 10:49:55;;;;;;;8.82;2.35;;;;;;;;;;5027702;28;20059;-32
2022/05/28 10:52:40;;;;;;;8.88;2.47;;;;;;;;;;5039535;28;20120;-30
2022/05/28 10:55:06;;;;;;;10.48;2.65;;;;;;;;;;5041897;28;20372;-33
2022/05/28 10:57:51;;;;;;;8.10;2.30;;;;;;;;;;5041803;28;20402;-31
2022/05/28 11:00:25;;;;;;;6.90;2.30;;;;;;;;;;5035663;28;20090;-32
2022/05/28 11:03:06;;;;;;;11.15;2.80;;;;;;;;;;5027933;28;20049;-30
2022/05/28 11:05:41;;;;;;;11.45;2.75;;;;;;;;;;5027031;28;20053;-29
2022/05/28 11:08:13;;;;;;;8.43;2.85;;;;;;;;;;5028370;28;20045;-29
2022/05/28 11:10:48;;;;;;;7.28;2.53;;;;;;;;;;5028372;28;20041;-29
2022/05/28 11:13:21;;;;;;;10.88;2.85;;;;;;;;;;5028100;28;20045;-30
2022/05/28 11:15:57;;;;;;;9.88;2.72;;;;;;;;;;5031337;28;20041;-29
2022/05/28 11:18:41;;;;;;;11.30;2.72;;;;;;;;;;5031062;28;20445;-29
2022/05/28 11:21:14;;;;;;;7.38;2.33;;;;;;;;;;5032359;28;20033;-30
2022/05/28 11:23:58;;;;;;;6.68;2.03;;;;;;;;;;5035166;28;20042;-30
2022/05/28 11:26:30;;;;;;;11.50;2.63;;;;;;;;;;5035127;28;20041;-30
2022/05/28 11:29:22;;;;;;;8.68;2.58;;;;;;;;;;5034276;28;20041;-28
2022/05/28 11:31:52;;;;;;;7.80;2.78;;;;;;;;;;5032907;28;20391;-30
2022/05/28 11:34:40;;;;;;;8.20;2.38;;;;;;;;;;5033473;28;20048;-30
2022/05/28 11:37:12;;;;;;;8.70;2.88;;;;;;;;;;5033409;28;20064;-29
2022/05/28 11:39:57;;;;;;;9.63;1.92;;;;;;;;;;5033493;28;20103;-31
2022/05/28 11:42:29;;;;;;;9.43;2.30;;;;;;;;;;5033302;28;20044;-29
2022/05/28 11:44:56;;;;;;;8.48;2.70;;;;;;;;;;5034176;28;20049;-31
2022/05/28 11:47:22;;;;;;;7.28;2.50;;;;;;;;;;5034709;28;20042;-30
2022/05/28 11:52:40;;;;;;;10.38;3.20;;;;;;;;;;5034567;28;20403;-29
2022/05/28 11:55:10;;;;;;;11.93;3.53;;;;;;;;;;5034676;28;20403;-30
2022/05/28 11:57:41;;;;;;;10.27;3.22;;;;;;;;;;5034567;28;20222;-30
2022/05/28 12:00:10;;;;;;;11.32;3.28;;;;;;;;;;5034272;28;20041;-29
2022/05/28 12:02:40;;;;;;;5.50;1.88;;;;;;;;;;5034489;28;20160;-30
2022/05/28 12:05:17;;;;;;;9.93;2.53;;;;;;;;;;5034154;28;20041;-30
2022/05/28 12:07:44;;;;;;;3.95;1.80;;;;;;;;;;5034009;28;20433;-31
2022/05/28 12:10:29;;;;;;;5.95;2.30;;;;;;;;;;5033313;28;20254;-29
2022/05/28 12:12:59;;;;;;;8.20;2.08;;;;;;;;;;5032600;28;20046;-30
2022/05/28 12:15:27;;;;;;;6.82;1.52;;;;;;;;;;5032437;28;20487;-31
2022/05/28 12:17:59;;;;;;;6.28;1.70;;;;;;;;;;5044340;28;20503;-32
2022/05/28 12:20:30;;;;;;;6.18;2.10;;;;;;;;;;5046474;28;20127;-32
2022/05/28 12:23:00;;;;;;;8.35;2.65;;;;;;;;;;5046430;28;20041;-32
2022/05/28 12:25:29;;;;;;;5.97;1.77;;;;;;;;;;5043286;28;20061;-33
2022/05/28 12:27:55;;;;;;;6.97;2.17;;;;;;;;;;5040949;28;20037;-32
2022/05/28 12:30:30;;;;;;;7.78;2.15;;;;;;;;;;5033168;28;20415;-32
2022/05/28 12:32:58;;;;;;;7.78;2.08;;;;;;;;;;5035951;28;20037;-32
2022/05/28 12:35:26;;;;;;;7.53;2.13;;;;;;;;;;5040554;28;20034;-33
2022/05/28 12:38:01;;;;;;;6.97;2.35;;;;;;;;;;5042382;28;20053;-30
2022/05/28 12:40:27;;;;;;;9.85;2.22;;;;;;;;;;5047318;28;20057;-31
2022/05/28 12:42:56;;;;;;;9.15;2.15;;;;;;;;;;5043901;28;20543;-32
2022/05/28 12:45:25;;;;;;;6.72;2.22;;;;;;;;;;5042376;28;20051;-33
2022/05/28 12:47:51;;;;;;;8.68;2.50;;;;;;;;;;5039981;28;20041;-31
2022/05/28 12:50:23;;;;;;;7.07;2.53;;;;;;;;;;5043624;28;20044;-31
2022/05/28 12:53:08;;;;;;;7.03;2.33;;;;;;;;;;5047669;28;20045;-30
2022/05/28 12:55:38;;;;;;;7.03;1.77;;;;;;;;;;5048293;28;20498;-32
2022/05/28 12:58:12;;;;;;;5.60;1.83;;;;;;;;;;5042672;28;20037;-33
2022/05/28 13:00:45;;;;;;;6.00;1.70;;;;;;;;;;5016198;28;20029;-33
2022/05/28 13:03:14;;;;;;;6.97;2.40;;;;;;;;;;5048392;28;20046;-33
2022/05/28 13:05:42;;;;;;;5.70;1.65;;;;;;;;;;5045724;28;20036;-34
2022/05/28 13:08:08;;;;;;;4.70;1.80;;;;;;;;;;5049640;28;20163;-33
2022/05/28 13:10:34;;;;;;;5.90;2.05;;;;;;;;;;5046038;28;20041;-33
2022/05/28 13:13:06;;;;;;;3.60;1.67;;;;;;;;;;5040439;28;20057;-33
2022/05/28 13:15:44;;;;;;;5.32;1.83;;;;;;;;;;5037754;28;20120;-33
2022/05/28 13:18:26;;;;;;;7.18;1.88;;;;;;;;;;5050101;28;20076;-34
2022/05/28 13:20:52;;;;;;;6.25;1.80;;;;;;;;;;5040890;28;20045;-35
2022/05/28 13:23:29;;;;;;;7.63;2.10;;;;;;;;;;5048029;28;20166;-33
2022/05/28 13:25:58;;;;;;;5.13;1.80;;;;;;;;;;5041098;28;20482;-33
2022/05/28 13:28:44;;;;;;;5.50;1.88;;;;;;;;;;5048199;28;20045;-34
2022/05/28 13:31:11;;;;;;;6.53;2.08;;;;;;;;;;5042498;28;20044;-33
2022/05/28 13:33:39;;;;;;;5.95;1.73;;;;;;;;;;5039481;28;20399;-32
2022/05/28 13:36:11;;;;;;;6.78;2.15;;;;;;;;;;5041057;28;20059;-32
2022/05/28 13:38:39;;;;;;;6.22;1.85;;;;;;;;;;5025536;28;20388;-33
2022/05/28 13:41:13;;;;;;;6.18;1.65;;;;;;;;;;5042232;28;20034;-34
2022/05/28 13:43:44;;;;;;;6.68;2.35;;;;;;;;;;5038378;28;20038;-32
2022/05/28 13:46:11;;;;;;;7.18;2.28;;;;;;;;;;5039312;28;20120;-32
2022/05/28 13:49:03;;;;;;;6.93;2.17;;;;;;;;;;5041141;28;20048;-32
2022/05/28 13:51:30;;;;;;;7.05;2.55;;;;;;;;;;5032915;28;20495;-33
2022/05/28 13:53:58;;;;;;;7.72;2.60;;;;;;;;;;5042270;28;20113;-33
2022/05/28 13:56:25;;;;;;;8.00;2.45;;;;;;;;;;5049550;28;20044;-33
2022/05/28 13:58:52;;;;;;;8.50;2.60;;;;;;;;;;5042967;28;20064;-31
2022/05/28 14:01:23;;;;;;;8.35;2.80;;;;;;;;;;5051453;28;20055;-30
2022/05/28 14:03:49;;;;;;;6.88;2.38;;;;;;;;;;5032900;28;20442;-30
2022/05/28 14:06:19;;;;;;;8.07;2.17;;;;;;;;;;5042534;28;20395;-30
2022/05/28 14:08:48;;;;;;;9.20;2.85;;;;;;;;;;5052771;28;20075;-31
2022/05/28 14:11:23;;;;;;;9.95;2.33;;;;;;;;;;5051927;28;20044;-30
2022/05/28 14:13:58;;;;;;;4.60;2.20;;;;;;;;;;5043361;28;20099;-31
2022/05/28 14:16:37;;;;;;;8.75;2.33;;;;;;;;;;5033939;28;20088;-31
2022/05/28 14:19:05;;;;;;;7.20;2.10;;;;;;;;;;5052569;28;20052;-30
2022/05/28 14:21:39;;;;;;;9.05;2.47;;;;;;;;;;5036137;28;20435;-30
2022/05/28 14:24:24;;;;;;;8.10;2.30;;;;;;;;;;5041633;28;20041;-30
2022/05/28 14:26:52;;;;;;;6.47;2.00;;;;;;;;;;5052357;28;20040;-31
2022/05/28 14:29:20;;;;;;;2.85;1.52;;;;;;;;;;5052156;28;20036;-32
2022/05/28 14:31:46;;;;;;;5.95;2.22;;;;;;;;;;5052502;28;20487;-31
2022/05/28 14:34:14;;;;;;;4.22;1.40;;;;;;;;;;5052276;28;20491;-31
2022/05/28 14:36:48;;;;;;;4.13;1.55;;;;;;;;;;5052060;28;20033;-31
2022/05/28 14:39:15;;;;;;;5.57;1.42;;;;;;;;;;5052312;28;20146;-31
2022/05/28 14:41:49;;;;;;;3.03;1.10;;;;;;;;;;5051964;28;20375;-32
2022/05/28 14:44:16;;;;;;;4.53;1.58;;;;;;;;;;5052260;28;20066;-31
2022/05/28 14:46:43;;;;;;;4.32;1.40;;;;;;;;;;5051957;28;20041;-30
2022/05/28 14:49:17;;;;;;;4.75;1.52;;;;;;;;;;5034454;28;20399;-31
2022/05/28 14:51:44;;;;;;;6.55;2.05;;;;;;;;;;5051639;28;20472;-30
2022/05/28 14:54:27;;;;;;;5.18;1.42;;;;;;;;;;5048406;28;20132;-30
2022/05/28 14:56:53;;;;;;;4.70;1.80;;;;;;;;;;5050945;28;20080;-30
2022/05/28 14:59:39;;;;;;;3.85;1.23;;;;;;;;;;5051298;28;20043;-30
2022/05/28 15:02:20;;;;;;;4.05;1.45;;;;;;;;;;5041903;28;20490;-30